sensor_id;sensor_type;location;lat;lon;timestamp;P1;durP1;ratioP1;P2;durP2;ratioP2
19446;SDS011;9862;49.462;11.054;2023-01-19T00:01:34;16.63;;;8.57;;
19446;SDS011;9862;49.462;11.054;2023-01-19T00:04:00;17.80;;;8.75;;
19446;SDS011;9862;49.462;11.054;2023-01-19T00:06:29;13.45;;;7.65;;
19446;SDS011;9862;49.462;11.054;2023-01-19T00:08:56;13.02;;;8.43;;
19446;SDS011;9862;49.462;11.054;2023-01-19T00:11:23;14.75;;;8.18;;
19446;SDS011;9862;49.462;11.054;2023-01-19T00:13:49;19.95;;;8.07;;
19446;SDS011;9862;49.462;11.054;2023-01-19T00:16:18;15.45;;;7.30;;
19446;SDS011;9862;49.462;11.054;2023-01-19T00:18:47;15.65;;;8.40;;
19446;SDS011;9862;49.462;11.054;2023-01-19T00:21:15;15.35;;;7.68;;
19446;SDS011;9862;49.462;11.054;2023-01-19T00:23:43;17.02;;;8.35;;
19446;SDS011;9862;49.462;11.054;2023-01-19T00:26:12;17.70;;;9.23;;
19446;SDS011;9862;49.462;11.054;2023-01-19T00:28:41;17.58;;;8.43;;
19446;SDS011;9862;49.462;11.054;2023-01-19T00:31:08;18.83;;;9.20;;
19446;SDS011;9862;49.462;11.054;2023-01-19T00:33:35;16.48;;;9.38;;
19446;SDS011;9862;49.462;11.054;2023-01-19T00:36:02;18.10;;;9.48;;
19446;SDS011;9862;49.462;11.054;2023-01-19T00:38:29;17.40;;;9.02;;
19446;SDS011;9862;49.462;11.054;2023-01-19T00:40:57;17.90;;;9.45;;
19446;SDS011;9862;49.462;11.054;2023-01-19T00:43:23;18.05;;;9.40;;
19446;SDS011;9862;49.462;11.054;2023-01-19T00:45:49;17.05;;;10.30;;
19446;SDS011;9862;49.462;11.054;2023-01-19T00:48:16;19.30;;;9.18;;
19446;SDS011;9862;49.462;11.054;2023-01-19T00:50:42;15.90;;;9.15;;
19446;SDS011;9862;49.462;11.054;2023-01-19T00:53:09;20.30;;;9.50;;
19446;SDS011;9862;49.462;11.054;2023-01-19T00:55:35;18.75;;;9.85;;
19446;SDS011;9862;49.462;11.054;2023-01-19T00:58:04;19.35;;;9.93;;
19446;SDS011;9862;49.462;11.054;2023-01-19T01:00:31;17.20;;;9.95;;
19446;SDS011;9862;49.462;11.054;2023-01-19T01:02:58;21.23;;;10.00;;
19446;SDS011;9862;49.462;11.054;2023-01-19T01:05:24;21.38;;;10.98;;
19446;SDS011;9862;49.462;11.054;2023-01-19T01:07:51;20.30;;;10.25;;
19446;SDS011;9862;49.462;11.054;2023-01-19T01:10:18;18.48;;;10.77;;
19446;SDS011;9862;49.462;11.054;2023-01-19T01:12:46;18.10;;;10.23;;
19446;SDS011;9862;49.462;11.054;2023-01-19T01:15:16;21.67;;;10.65;;
19446;SDS011;9862;49.462;11.054;2023-01-19T01:17:43;22.15;;;10.82;;
19446;SDS011;9862;49.462;11.054;2023-01-19T01:20:15;19.88;;;10.57;;
19446;SDS011;9862;49.462;11.054;2023-01-19T01:22:43;19.40;;;10.48;;
19446;SDS011;9862;49.462;11.054;2023-01-19T01:25:11;20.48;;;10.82;;
19446;SDS011;9862;49.462;11.054;2023-01-19T01:27:38;22.08;;;11.30;;
19446;SDS011;9862;49.462;11.054;2023-01-19T01:30:05;26.52;;;10.90;;
19446;SDS011;9862;49.462;11.054;2023-01-19T01:32:34;23.08;;;10.82;;
19446;SDS011;9862;49.462;11.054;2023-01-19T01:35:03;23.38;;;11.30;;
19446;SDS011;9862;49.462;11.054;2023-01-19T01:37:30;22.45;;;11.30;;
19446;SDS011;9862;49.462;11.054;2023-01-19T01:39:57;19.52;;;11.00;;
19446;SDS011;9862;49.462;11.054;2023-01-19T01:42:25;20.58;;;11.10;;
19446;SDS011;9862;49.462;11.054;2023-01-19T01:44:54;21.00;;;11.32;;
19446;SDS011;9862;49.462;11.054;2023-01-19T01:47:24;19.10;;;10.57;;
19446;SDS011;9862;49.462;11.054;2023-01-19T01:49:58;21.52;;;12.05;;
19446;SDS011;9862;49.462;11.054;2023-01-19T01:52:30;18.67;;;10.57;;
19446;SDS011;9862;49.462;11.054;2023-01-19T01:54:59;24.83;;;11.60;;
19446;SDS011;9862;49.462;11.054;2023-01-19T01:57:27;18.42;;;10.95;;
19446;SDS011;9862;49.462;11.054;2023-01-19T01:59:55;20.67;;;11.13;;
19446;SDS011;9862;49.462;11.054;2023-01-19T02:02:24;19.98;;;10.70;;
19446;SDS011;9862;49.462;11.054;2023-01-19T02:05:14;22.45;;;10.75;;
19446;SDS011;9862;49.462;11.054;2023-01-19T02:07:44;22.70;;;11.15;;
19446;SDS011;9862;49.462;11.054;2023-01-19T02:10:32;20.00;;;10.85;;
19446;SDS011;9862;49.462;11.054;2023-01-19T02:13:16;22.42;;;10.05;;
19446;SDS011;9862;49.462;11.054;2023-01-19T02:15:44;23.27;;;11.00;;
19446;SDS011;9862;49.462;11.054;2023-01-19T02:18:11;20.92;;;10.60;;
19446;SDS011;9862;49.462;11.054;2023-01-19T02:20:39;21.52;;;11.05;;
19446;SDS011;9862;49.462;11.054;2023-01-19T02:23:14;22.08;;;10.63;;
19446;SDS011;9862;49.462;11.054;2023-01-19T02:25:46;22.17;;;10.52;;
19446;SDS011;9862;49.462;11.054;2023-01-19T02:28:14;19.48;;;10.55;;
19446;SDS011;9862;49.462;11.054;2023-01-19T02:30:42;20.23;;;11.00;;
19446;SDS011;9862;49.462;11.054;2023-01-19T02:33:09;23.65;;;11.55;;
19446;SDS011;9862;49.462;11.054;2023-01-19T02:35:36;21.98;;;11.90;;
19446;SDS011;9862;49.462;11.054;2023-01-19T02:38:04;24.98;;;11.73;;
19446;SDS011;9862;49.462;11.054;2023-01-19T02:40:33;17.80;;;11.52;;
19446;SDS011;9862;49.462;11.054;2023-01-19T02:43:03;19.05;;;10.55;;
19446;SDS011;9862;49.462;11.054;2023-01-19T02:45:32;20.60;;;11.40;;
19446;SDS011;9862;49.462;11.054;2023-01-19T02:48:01;18.80;;;10.63;;
19446;SDS011;9862;49.462;11.054;2023-01-19T02:50:39;18.17;;;10.48;;
19446;SDS011;9862;49.462;11.054;2023-01-19T02:53:23;21.75;;;10.57;;
19446;SDS011;9862;49.462;11.054;2023-01-19T02:56:20;19.70;;;10.88;;
19446;SDS011;9862;49.462;11.054;2023-01-19T02:58:59;18.13;;;11.05;;
19446;SDS011;9862;49.462;11.054;2023-01-19T03:01:33;16.63;;;10.30;;
19446;SDS011;9862;49.462;11.054;2023-01-19T03:04:10;18.25;;;12.43;;
19446;SDS011;9862;49.462;11.054;2023-01-19T03:06:46;19.40;;;12.43;;
19446;SDS011;9862;49.462;11.054;2023-01-19T03:09:19;21.75;;;11.93;;
19446;SDS011;9862;49.462;11.054;2023-01-19T03:11:54;22.20;;;11.68;;
19446;SDS011;9862;49.462;11.054;2023-01-19T03:14:30;21.15;;;11.50;;
19446;SDS011;9862;49.462;11.054;2023-01-19T03:17:01;22.02;;;11.23;;
19446;SDS011;9862;49.462;11.054;2023-01-19T03:19:32;22.08;;;12.02;;
19446;SDS011;9862;49.462;11.054;2023-01-19T03:22:04;28.02;;;14.48;;
19446;SDS011;9862;49.462;11.054;2023-01-19T03:24:36;22.50;;;13.27;;
19446;SDS011;9862;49.462;11.054;2023-01-19T03:27:06;21.52;;;12.75;;
19446;SDS011;9862;49.462;11.054;2023-01-19T03:29:38;22.10;;;13.50;;
19446;SDS011;9862;49.462;11.054;2023-01-19T03:32:10;27.92;;;14.73;;
19446;SDS011;9862;49.462;11.054;2023-01-19T03:34:41;27.40;;;15.15;;
19446;SDS011;9862;49.462;11.054;2023-01-19T03:37:10;20.45;;;11.43;;
19446;SDS011;9862;49.462;11.054;2023-01-19T03:39:39;17.30;;;9.95;;
19446;SDS011;9862;49.462;11.054;2023-01-19T03:42:07;17.17;;;9.77;;
19446;SDS011;9862;49.462;11.054;2023-01-19T03:44:38;20.85;;;9.85;;
19446;SDS011;9862;49.462;11.054;2023-01-19T03:47:07;16.73;;;9.20;;
19446;SDS011;9862;49.462;11.054;2023-01-19T03:49:35;17.13;;;9.63;;
19446;SDS011;9862;49.462;11.054;2023-01-19T03:52:04;21.45;;;10.07;;
19446;SDS011;9862;49.462;11.054;2023-01-19T03:54:31;17.02;;;9.88;;
19446;SDS011;9862;49.462;11.054;2023-01-19T03:56:57;22.48;;;9.90;;
19446;SDS011;9862;49.462;11.054;2023-01-19T03:59:24;18.08;;;9.52;;
19446;SDS011;9862;49.462;11.054;2023-01-19T04:01:52;27.35;;;13.52;;
19446;SDS011;9862;49.462;11.054;2023-01-19T04:04:19;25.88;;;12.15;;
19446;SDS011;9862;49.462;11.054;2023-01-19T04:06:45;20.77;;;11.90;;
19446;SDS011;9862;49.462;11.054;2023-01-19T04:09:12;17.83;;;9.95;;
19446;SDS011;9862;49.462;11.054;2023-01-19T04:11:38;22.60;;;12.75;;
19446;SDS011;9862;49.462;11.054;2023-01-19T04:14:05;22.75;;;13.38;;
19446;SDS011;9862;49.462;11.054;2023-01-19T04:16:31;21.40;;;11.77;;
19446;SDS011;9862;49.462;11.054;2023-01-19T04:18:59;34.15;;;19.00;;
19446;SDS011;9862;49.462;11.054;2023-01-19T04:21:26;46.78;;;23.60;;
19446;SDS011;9862;49.462;11.054;2023-01-19T04:23:52;20.23;;;13.02;;
19446;SDS011;9862;49.462;11.054;2023-01-19T04:26:19;15.75;;;10.48;;
19446;SDS011;9862;49.462;11.054;2023-01-19T04:28:46;18.63;;;9.82;;
19446;SDS011;9862;49.462;11.054;2023-01-19T04:31:12;16.92;;;9.48;;
19446;SDS011;9862;49.462;11.054;2023-01-19T04:33:39;15.32;;;9.02;;
19446;SDS011;9862;49.462;11.054;2023-01-19T04:36:07;16.52;;;9.48;;
19446;SDS011;9862;49.462;11.054;2023-01-19T04:38:34;16.75;;;10.25;;
19446;SDS011;9862;49.462;11.054;2023-01-19T04:41:00;17.20;;;10.43;;
19446;SDS011;9862;49.462;11.054;2023-01-19T04:43:27;14.57;;;9.57;;
19446;SDS011;9862;49.462;11.054;2023-01-19T04:45:53;18.27;;;10.00;;
19446;SDS011;9862;49.462;11.054;2023-01-19T04:48:20;20.00;;;10.70;;
19446;SDS011;9862;49.462;11.054;2023-01-19T04:50:49;16.77;;;9.68;;
19446;SDS011;9862;49.462;11.054;2023-01-19T04:53:17;17.92;;;10.52;;
19446;SDS011;9862;49.462;11.054;2023-01-19T04:55:43;14.63;;;9.63;;
19446;SDS011;9862;49.462;11.054;2023-01-19T04:58:10;17.65;;;10.23;;
19446;SDS011;9862;49.462;11.054;2023-01-19T05:00:37;17.50;;;10.18;;
19446;SDS011;9862;49.462;11.054;2023-01-19T05:03:03;14.32;;;8.77;;
19446;SDS011;9862;49.462;11.054;2023-01-19T05:05:30;19.42;;;9.82;;
19446;SDS011;9862;49.462;11.054;2023-01-19T05:07:57;17.55;;;10.18;;
19446;SDS011;9862;49.462;11.054;2023-01-19T05:10:25;17.17;;;11.00;;
19446;SDS011;9862;49.462;11.054;2023-01-19T05:12:51;17.00;;;10.15;;
19446;SDS011;9862;49.462;11.054;2023-01-19T05:15:18;16.30;;;10.18;;
19446;SDS011;9862;49.462;11.054;2023-01-19T05:17:44;18.42;;;10.48;;
19446;SDS011;9862;49.462;11.054;2023-01-19T05:20:12;20.52;;;10.30;;
19446;SDS011;9862;49.462;11.054;2023-01-19T05:22:39;16.83;;;9.80;;
19446;SDS011;9862;49.462;11.054;2023-01-19T05:25:06;19.38;;;9.55;;
19446;SDS011;9862;49.462;11.054;2023-01-19T05:27:35;17.83;;;9.77;;
19446;SDS011;9862;49.462;11.054;2023-01-19T05:30:02;15.73;;;10.00;;
19446;SDS011;9862;49.462;11.054;2023-01-19T05:32:30;23.83;;;10.77;;
19446;SDS011;9862;49.462;11.054;2023-01-19T05:34:56;18.30;;;10.32;;
19446;SDS011;9862;49.462;11.054;2023-01-19T05:37:23;19.58;;;9.93;;
19446;SDS011;9862;49.462;11.054;2023-01-19T05:39:50;21.42;;;10.43;;
19446;SDS011;9862;49.462;11.054;2023-01-19T05:42:16;19.10;;;11.18;;
19446;SDS011;9862;49.462;11.054;2023-01-19T05:44:45;18.13;;;10.63;;
19446;SDS011;9862;49.462;11.054;2023-01-19T05:47:11;16.08;;;10.38;;
19446;SDS011;9862;49.462;11.054;2023-01-19T05:49:38;20.65;;;11.05;;
19446;SDS011;9862;49.462;11.054;2023-01-19T05:52:04;24.02;;;10.68;;
19446;SDS011;9862;49.462;11.054;2023-01-19T05:54:31;20.45;;;10.27;;
19446;SDS011;9862;49.462;11.054;2023-01-19T05:56:57;25.88;;;13.27;;
19446;SDS011;9862;49.462;11.054;2023-01-19T05:59:24;25.98;;;12.88;;
19446;SDS011;9862;49.462;11.054;2023-01-19T06:01:52;18.75;;;10.48;;
19446;SDS011;9862;49.462;11.054;2023-01-19T06:04:20;18.52;;;10.27;;
19446;SDS011;9862;49.462;11.054;2023-01-19T06:06:46;16.85;;;9.40;;
19446;SDS011;9862;49.462;11.054;2023-01-19T06:09:13;16.75;;;9.82;;
19446;SDS011;9862;49.462;11.054;2023-01-19T06:11:41;18.63;;;10.73;;
19446;SDS011;9862;49.462;11.054;2023-01-19T06:14:08;16.55;;;10.10;;
19446;SDS011;9862;49.462;11.054;2023-01-19T06:16:34;25.80;;;13.38;;
19446;SDS011;9862;49.462;11.054;2023-01-19T06:19:03;22.40;;;11.85;;
19446;SDS011;9862;49.462;11.054;2023-01-19T06:21:29;17.23;;;9.65;;
19446;SDS011;9862;49.462;11.054;2023-01-19T06:23:56;20.35;;;10.25;;
19446;SDS011;9862;49.462;11.054;2023-01-19T06:26:23;18.35;;;10.27;;
19446;SDS011;9862;49.462;11.054;2023-01-19T06:28:50;17.73;;;10.65;;
19446;SDS011;9862;49.462;11.054;2023-01-19T06:31:17;19.60;;;11.00;;
19446;SDS011;9862;49.462;11.054;2023-01-19T06:33:43;19.90;;;10.57;;
19446;SDS011;9862;49.462;11.054;2023-01-19T06:36:11;17.85;;;10.68;;
19446;SDS011;9862;49.462;11.054;2023-01-19T06:38:38;18.23;;;11.52;;
19446;SDS011;9862;49.462;11.054;2023-01-19T06:41:05;16.52;;;9.80;;
19446;SDS011;9862;49.462;11.054;2023-01-19T06:43:31;22.88;;;10.65;;
19446;SDS011;9862;49.462;11.054;2023-01-19T06:45:58;18.92;;;10.20;;
19446;SDS011;9862;49.462;11.054;2023-01-19T06:48:25;18.08;;;10.00;;
19446;SDS011;9862;49.462;11.054;2023-01-19T06:50:52;15.63;;;9.35;;
19446;SDS011;9862;49.462;11.054;2023-01-19T06:53:20;21.42;;;11.20;;
19446;SDS011;9862;49.462;11.054;2023-01-19T06:55:46;17.23;;;10.40;;
19446;SDS011;9862;49.462;11.054;2023-01-19T06:58:13;18.85;;;10.00;;
19446;SDS011;9862;49.462;11.054;2023-01-19T07:00:40;16.17;;;10.57;;
19446;SDS011;9862;49.462;11.054;2023-01-19T07:03:07;16.60;;;10.68;;
19446;SDS011;9862;49.462;11.054;2023-01-19T07:05:34;18.48;;;10.00;;
19446;SDS011;9862;49.462;11.054;2023-01-19T07:08:01;21.17;;;10.90;;
19446;SDS011;9862;49.462;11.054;2023-01-19T07:10:30;14.68;;;8.82;;
19446;SDS011;9862;49.462;11.054;2023-01-19T07:12:58;17.15;;;10.30;;
19446;SDS011;9862;49.462;11.054;2023-01-19T07:15:24;15.90;;;9.75;;
19446;SDS011;9862;49.462;11.054;2023-01-19T07:17:51;15.30;;;9.65;;
19446;SDS011;9862;49.462;11.054;2023-01-19T07:20:17;16.00;;;9.38;;
19446;SDS011;9862;49.462;11.054;2023-01-19T07:22:44;17.90;;;9.65;;
19446;SDS011;9862;49.462;11.054;2023-01-19T07:25:11;18.27;;;9.45;;
19446;SDS011;9862;49.462;11.054;2023-01-19T07:27:39;16.83;;;10.20;;
19446;SDS011;9862;49.462;11.054;2023-01-19T07:30:06;21.45;;;11.98;;
19446;SDS011;9862;49.462;11.054;2023-01-19T07:32:34;20.60;;;11.52;;
19446;SDS011;9862;49.462;11.054;2023-01-19T07:35:00;16.63;;;10.60;;
19446;SDS011;9862;49.462;11.054;2023-01-19T07:37:27;19.15;;;12.02;;
19446;SDS011;9862;49.462;11.054;2023-01-19T07:39:54;17.17;;;11.30;;
19446;SDS011;9862;49.462;11.054;2023-01-19T07:42:20;17.65;;;10.45;;
19446;SDS011;9862;49.462;11.054;2023-01-19T07:44:48;22.83;;;10.90;;
19446;SDS011;9862;49.462;11.054;2023-01-19T07:47:15;15.32;;;9.55;;
19446;SDS011;9862;49.462;11.054;2023-01-19T07:49:41;16.20;;;10.07;;
19446;SDS011;9862;49.462;11.054;2023-01-19T07:52:08;18.17;;;11.88;;
19446;SDS011;9862;49.462;11.054;2023-01-19T07:54:35;18.35;;;11.55;;
19446;SDS011;9862;49.462;11.054;2023-01-19T07:57:01;23.58;;;12.32;;
19446;SDS011;9862;49.462;11.054;2023-01-19T07:59:28;25.60;;;13.82;;
19446;SDS011;9862;49.462;11.054;2023-01-19T08:01:57;29.75;;;16.15;;
19446;SDS011;9862;49.462;11.054;2023-01-19T08:04:24;18.90;;;11.95;;
19446;SDS011;9862;49.462;11.054;2023-01-19T08:06:51;20.02;;;11.43;;
19446;SDS011;9862;49.462;11.054;2023-01-19T08:09:18;19.50;;;10.45;;
19446;SDS011;9862;49.462;11.054;2023-01-19T08:11:45;19.58;;;11.15;;
19446;SDS011;9862;49.462;11.054;2023-01-19T08:14:12;19.25;;;9.68;;
19446;SDS011;9862;49.462;11.054;2023-01-19T08:16:38;17.88;;;10.57;;
19446;SDS011;9862;49.462;11.054;2023-01-19T08:19:06;19.85;;;10.80;;
19446;SDS011;9862;49.462;11.054;2023-01-19T08:21:33;18.13;;;10.32;;
19446;SDS011;9862;49.462;11.054;2023-01-19T08:24:00;16.48;;;10.00;;
19446;SDS011;9862;49.462;11.054;2023-01-19T08:26:27;18.10;;;9.40;;
19446;SDS011;9862;49.462;11.054;2023-01-19T08:28:56;16.17;;;10.00;;
19446;SDS011;9862;49.462;11.054;2023-01-19T08:31:25;17.42;;;10.07;;
19446;SDS011;9862;49.462;11.054;2023-01-19T08:33:52;18.27;;;10.00;;
19446;SDS011;9862;49.462;11.054;2023-01-19T08:36:20;15.70;;;10.10;;
19446;SDS011;9862;49.462;11.054;2023-01-19T08:38:49;17.85;;;9.65;;
19446;SDS011;9862;49.462;11.054;2023-01-19T08:41:16;18.98;;;10.77;;
19446;SDS011;9862;49.462;11.054;2023-01-19T08:43:42;19.10;;;9.95;;
19446;SDS011;9862;49.462;11.054;2023-01-19T08:46:10;19.33;;;9.98;;
19446;SDS011;9862;49.462;11.054;2023-01-19T08:48:40;15.18;;;8.82;;
19446;SDS011;9862;49.462;11.054;2023-01-19T08:51:09;15.02;;;8.90;;
19446;SDS011;9862;49.462;11.054;2023-01-19T08:53:37;18.67;;;10.25;;
19446;SDS011;9862;49.462;11.054;2023-01-19T08:56:05;14.65;;;8.85;;
19446;SDS011;9862;49.462;11.054;2023-01-19T08:58:36;16.55;;;8.73;;
19446;SDS011;9862;49.462;11.054;2023-01-19T09:01:03;17.85;;;9.25;;
19446;SDS011;9862;49.462;11.054;2023-01-19T09:03:30;13.18;;;9.05;;
19446;SDS011;9862;49.462;11.054;2023-01-19T09:05:57;14.35;;;9.18;;
19446;SDS011;9862;49.462;11.054;2023-01-19T09:08:23;14.20;;;8.52;;
19446;SDS011;9862;49.462;11.054;2023-01-19T09:10:51;18.20;;;9.73;;
19446;SDS011;9862;49.462;11.054;2023-01-19T09:13:18;13.20;;;8.02;;
19446;SDS011;9862;49.462;11.054;2023-01-19T09:15:45;18.50;;;10.75;;
19446;SDS011;9862;49.462;11.054;2023-01-19T09:18:12;15.25;;;9.43;;
19446;SDS011;9862;49.462;11.054;2023-01-19T09:20:40;16.80;;;8.65;;
19446;SDS011;9862;49.462;11.054;2023-01-19T09:23:08;13.70;;;9.02;;
19446;SDS011;9862;49.462;11.054;2023-01-19T09:25:35;15.15;;;9.43;;
19446;SDS011;9862;49.462;11.054;2023-01-19T09:28:04;17.20;;;9.05;;
19446;SDS011;9862;49.462;11.054;2023-01-19T09:30:31;16.15;;;8.50;;
19446;SDS011;9862;49.462;11.054;2023-01-19T09:33:01;20.80;;;9.20;;
19446;SDS011;9862;49.462;11.054;2023-01-19T09:35:30;14.63;;;8.60;;
19446;SDS011;9862;49.462;11.054;2023-01-19T09:37:57;19.25;;;8.50;;
19446;SDS011;9862;49.462;11.054;2023-01-19T09:40:23;12.15;;;8.20;;
19446;SDS011;9862;49.462;11.054;2023-01-19T09:42:51;20.92;;;9.35;;
19446;SDS011;9862;49.462;11.054;2023-01-19T09:45:26;16.10;;;9.65;;
19446;SDS011;9862;49.462;11.054;2023-01-19T09:47:59;12.98;;;7.93;;
19446;SDS011;9862;49.462;11.054;2023-01-19T09:50:30;15.85;;;8.70;;
19446;SDS011;9862;49.462;11.054;2023-01-19T09:53:01;14.90;;;7.85;;
19446;SDS011;9862;49.462;11.054;2023-01-19T09:55:35;13.85;;;7.90;;
19446;SDS011;9862;49.462;11.054;2023-01-19T09:58:08;16.20;;;7.93;;
19446;SDS011;9862;49.462;11.054;2023-01-19T10:00:38;13.32;;;7.38;;
19446;SDS011;9862;49.462;11.054;2023-01-19T10:03:09;11.68;;;7.45;;
19446;SDS011;9862;49.462;11.054;2023-01-19T10:05:41;12.15;;;7.07;;
19446;SDS011;9862;49.462;11.054;2023-01-19T10:08:16;10.60;;;6.57;;
19446;SDS011;9862;49.462;11.054;2023-01-19T10:10:46;12.18;;;7.45;;
19446;SDS011;9862;49.462;11.054;2023-01-19T10:13:20;11.52;;;6.05;;
19446;SDS011;9862;49.462;11.054;2023-01-19T10:15:57;9.77;;;6.25;;
19446;SDS011;9862;49.462;11.054;2023-01-19T10:18:35;13.73;;;6.72;;
19446;SDS011;9862;49.462;11.054;2023-01-19T10:21:12;10.70;;;6.32;;
19446;SDS011;9862;49.462;11.054;2023-01-19T10:23:42;9.60;;;6.53;;
19446;SDS011;9862;49.462;11.054;2023-01-19T10:26:14;9.52;;;6.90;;
19446;SDS011;9862;49.462;11.054;2023-01-19T10:28:43;9.57;;;5.80;;
19446;SDS011;9862;49.462;11.054;2023-01-19T10:31:13;11.40;;;6.72;;
19446;SDS011;9862;49.462;11.054;2023-01-19T10:33:43;10.30;;;6.35;;
19446;SDS011;9862;49.462;11.054;2023-01-19T10:36:15;11.18;;;5.70;;
19446;SDS011;9862;49.462;11.054;2023-01-19T10:38:42;11.27;;;6.82;;
19446;SDS011;9862;49.462;11.054;2023-01-19T10:41:11;11.77;;;6.70;;
19446;SDS011;9862;49.462;11.054;2023-01-19T10:43:43;11.63;;;6.55;;
19446;SDS011;9862;49.462;11.054;2023-01-19T10:46:20;13.13;;;6.32;;
19446;SDS011;9862;49.462;11.054;2023-01-19T10:48:51;22.30;;;10.68;;
19446;SDS011;9862;49.462;11.054;2023-01-19T10:51:19;11.50;;;7.20;;
19446;SDS011;9862;49.462;11.054;2023-01-19T10:53:53;9.98;;;6.18;;
19446;SDS011;9862;49.462;11.054;2023-01-19T10:56:22;14.23;;;7.75;;
19446;SDS011;9862;49.462;11.054;2023-01-19T10:58:52;11.85;;;6.85;;
19446;SDS011;9862;49.462;11.054;2023-01-19T11:01:21;14.55;;;6.07;;
19446;SDS011;9862;49.462;11.054;2023-01-19T11:03:49;12.15;;;5.97;;
19446;SDS011;9862;49.462;11.054;2023-01-19T11:06:21;8.90;;;5.63;;
19446;SDS011;9862;49.462;11.054;2023-01-19T11:08:54;12.32;;;5.68;;
19446;SDS011;9862;49.462;11.054;2023-01-19T11:11:40;9.50;;;6.25;;
19446;SDS011;9862;49.462;11.054;2023-01-19T11:14:09;11.85;;;5.82;;
19446;SDS011;9862;49.462;11.054;2023-01-19T11:16:39;8.57;;;5.50;;
19446;SDS011;9862;49.462;11.054;2023-01-19T11:19:14;10.18;;;6.07;;
19446;SDS011;9862;49.462;11.054;2023-01-19T11:21:45;8.60;;;5.00;;
19446;SDS011;9862;49.462;11.054;2023-01-19T11:24:11;10.75;;;4.72;;
19446;SDS011;9862;49.462;11.054;2023-01-19T11:26:41;9.68;;;4.95;;
19446;SDS011;9862;49.462;11.054;2023-01-19T11:29:14;8.45;;;4.63;;
19446;SDS011;9862;49.462;11.054;2023-01-19T11:31:44;9.30;;;4.47;;
19446;SDS011;9862;49.462;11.054;2023-01-19T11:36:57;10.35;;;6.18;;
19446;SDS011;9862;49.462;11.054;2023-01-19T11:39:26;13.30;;;5.78;;
19446;SDS011;9862;49.462;11.054;2023-01-19T11:41:58;9.13;;;4.63;;
19446;SDS011;9862;49.462;11.054;2023-01-19T11:44:31;10.00;;;5.50;;
19446;SDS011;9862;49.462;11.054;2023-01-19T11:47:03;8.45;;;4.13;;
19446;SDS011;9862;49.462;11.054;2023-01-19T11:49:37;8.00;;;4.50;;
19446;SDS011;9862;49.462;11.054;2023-01-19T11:52:11;6.10;;;4.13;;
19446;SDS011;9862;49.462;11.054;2023-01-19T11:54:44;8.32;;;4.65;;
19446;SDS011;9862;49.462;11.054;2023-01-19T11:57:15;7.70;;;4.70;;
19446;SDS011;9862;49.462;11.054;2023-01-19T11:59:42;10.98;;;3.95;;
19446;SDS011;9862;49.462;11.054;2023-01-19T12:02:14;6.55;;;4.25;;
19446;SDS011;9862;49.462;11.054;2023-01-19T12:04:45;7.35;;;4.28;;
19446;SDS011;9862;49.462;11.054;2023-01-19T12:07:14;6.38;;;4.03;;
19446;SDS011;9862;49.462;11.054;2023-01-19T12:09:47;9.60;;;5.00;;
19446;SDS011;9862;49.462;11.054;2023-01-19T12:12:22;9.30;;;4.32;;
19446;SDS011;9862;49.462;11.054;2023-01-19T12:14:54;8.27;;;4.38;;
19446;SDS011;9862;49.462;11.054;2023-01-19T12:17:26;10.02;;;4.43;;
19446;SDS011;9862;49.462;11.054;2023-01-19T12:19:58;10.90;;;4.20;;
19446;SDS011;9862;49.462;11.054;2023-01-19T12:22:30;12.45;;;4.72;;
19446;SDS011;9862;49.462;11.054;2023-01-19T12:25:11;8.88;;;4.18;;
19446;SDS011;9862;49.462;11.054;2023-01-19T12:27:44;8.93;;;4.40;;
19446;SDS011;9862;49.462;11.054;2023-01-19T12:30:15;9.30;;;4.32;;
19446;SDS011;9862;49.462;11.054;2023-01-19T12:32:46;7.25;;;4.38;;
19446;SDS011;9862;49.462;11.054;2023-01-19T12:38:22;10.35;;;4.45;;
19446;SDS011;9862;49.462;11.054;2023-01-19T12:41:14;7.85;;;4.00;;
19446;SDS011;9862;49.462;11.054;2023-01-19T12:43:42;8.82;;;4.30;;
19446;SDS011;9862;49.462;11.054;2023-01-19T12:46:17;9.05;;;4.35;;
19446;SDS011;9862;49.462;11.054;2023-01-19T12:48:46;9.85;;;4.47;;
19446;SDS011;9862;49.462;11.054;2023-01-19T12:51:20;8.68;;;5.18;;
19446;SDS011;9862;49.462;11.054;2023-01-19T12:53:51;8.20;;;3.70;;
19446;SDS011;9862;49.462;11.054;2023-01-19T12:56:19;8.07;;;4.07;;
19446;SDS011;9862;49.462;11.054;2023-01-19T12:58:52;5.43;;;3.80;;
19446;SDS011;9862;49.462;11.054;2023-01-19T13:01:18;9.70;;;4.78;;
19446;SDS011;9862;49.462;11.054;2023-01-19T13:03:58;5.68;;;3.83;;
19446;SDS011;9862;49.462;11.054;2023-01-19T13:09:30;8.32;;;4.40;;
19446;SDS011;9862;49.462;11.054;2023-01-19T13:14:47;8.35;;;4.30;;
19446;SDS011;9862;49.462;11.054;2023-01-19T13:17:20;11.50;;;4.57;;
19446;SDS011;9862;49.462;11.054;2023-01-19T13:19:57;9.68;;;4.70;;
19446;SDS011;9862;49.462;11.054;2023-01-19T13:25:49;9.00;;;4.18;;
19446;SDS011;9862;49.462;11.054;2023-01-19T13:28:26;7.22;;;4.28;;
19446;SDS011;9862;49.462;11.054;2023-01-19T13:30:57;6.30;;;4.18;;
19446;SDS011;9862;49.462;11.054;2023-01-19T13:33:27;6.57;;;4.30;;
19446;SDS011;9862;49.462;11.054;2023-01-19T13:35:59;6.28;;;4.32;;
19446;SDS011;9862;49.462;11.054;2023-01-19T13:38:26;7.38;;;4.65;;
19446;SDS011;9862;49.462;11.054;2023-01-19T13:40:56;5.13;;;3.70;;
19446;SDS011;9862;49.462;11.054;2023-01-19T13:43:27;6.90;;;3.92;;
19446;SDS011;9862;49.462;11.054;2023-01-19T13:45:59;9.02;;;4.47;;
19446;SDS011;9862;49.462;11.054;2023-01-19T13:48:27;7.20;;;4.15;;
19446;SDS011;9862;49.462;11.054;2023-01-19T13:51:02;7.15;;;4.93;;
19446;SDS011;9862;49.462;11.054;2023-01-19T13:53:30;9.30;;;4.93;;
19446;SDS011;9862;49.462;11.054;2023-01-19T13:56:04;8.55;;;4.93;;
19446;SDS011;9862;49.462;11.054;2023-01-19T13:58:32;8.35;;;4.13;;
19446;SDS011;9862;49.462;11.054;2023-01-19T14:00:59;8.00;;;3.95;;
19446;SDS011;9862;49.462;11.054;2023-01-19T14:03:26;7.53;;;4.43;;
19446;SDS011;9862;49.462;11.054;2023-01-19T14:05:53;10.65;;;4.63;;
19446;SDS011;9862;49.462;11.054;2023-01-19T14:08:22;6.88;;;4.40;;
19446;SDS011;9862;49.462;11.054;2023-01-19T14:10:58;10.30;;;4.22;;
19446;SDS011;9862;49.462;11.054;2023-01-19T14:13:27;9.20;;;4.68;;
19446;SDS011;9862;49.462;11.054;2023-01-19T14:15:56;6.63;;;4.35;;
19446;SDS011;9862;49.462;11.054;2023-01-19T14:18:24;7.45;;;4.38;;
19446;SDS011;9862;49.462;11.054;2023-01-19T14:20:55;7.72;;;4.45;;
19446;SDS011;9862;49.462;11.054;2023-01-19T14:23:41;14.13;;;5.35;;
19446;SDS011;9862;49.462;11.054;2023-01-19T14:29:15;11.65;;;6.18;;
19446;SDS011;9862;49.462;11.054;2023-01-19T14:31:48;10.75;;;5.95;;
19446;SDS011;9862;49.462;11.054;2023-01-19T14:34:27;8.48;;;4.82;;
19446;SDS011;9862;49.462;11.054;2023-01-19T14:36:55;8.55;;;3.80;;
19446;SDS011;9862;49.462;11.054;2023-01-19T14:39:24;12.88;;;5.28;;
19446;SDS011;9862;49.462;11.054;2023-01-19T14:41:52;9.68;;;5.30;;
19446;SDS011;9862;49.462;11.054;2023-01-19T14:44:25;8.77;;;5.05;;
19446;SDS011;9862;49.462;11.054;2023-01-19T14:46:54;8.52;;;5.03;;
19446;SDS011;9862;49.462;11.054;2023-01-19T14:49:25;7.95;;;4.43;;
19446;SDS011;9862;49.462;11.054;2023-01-19T14:51:55;9.48;;;4.97;;
19446;SDS011;9862;49.462;11.054;2023-01-19T14:54:25;15.82;;;6.18;;
19446;SDS011;9862;49.462;11.054;2023-01-19T14:56:56;7.95;;;4.55;;
19446;SDS011;9862;49.462;11.054;2023-01-19T14:59:23;7.20;;;4.85;;
19446;SDS011;9862;49.462;11.054;2023-01-19T15:01:49;7.30;;;4.80;;